sensor_id;sensor_type;location;lat;lon;timestamp;temperature;humidity
25951;DHT22;13748;52.240;6.002;2023-03-16T00:02:09;4.20;99.90
25951;DHT22;13748;52.240;6.002;2023-03-16T00:04:38;4.20;99.90
25951;DHT22;13748;52.240;6.002;2023-03-16T00:07:07;4.20;99.90
25951;DHT22;13748;52.240;6.002;2023-03-16T00:09:36;4.20;99.90
25951;DHT22;13748;52.240;6.002;2023-03-16T00:12:16;4.20;99.90
25951;DHT22;13748;52.240;6.002;2023-03-16T00:14:45;4.20;99.90
25951;DHT22;13748;52.240;6.002;2023-03-16T00:17:14;4.20;99.90
25951;DHT22;13748;52.240;6.002;2023-03-16T00:19:46;4.20;99.90
25951;DHT22;13748;52.240;6.002;2023-03-16T00:22:14;4.20;99.90
25951;DHT22;13748;52.240;6.002;2023-03-16T00:24:43;4.20;99.90
25951;DHT22;13748;52.240;6.002;2023-03-16T00:27:12;4.30;99.90
25951;DHT22;13748;52.240;6.002;2023-03-16T00:29:52;4.30;99.90
25951;DHT22;13748;52.240;6.002;2023-03-16T00:32:31;4.30;99.90
25951;DHT22;13748;52.240;6.002;2023-03-16T00:35:01;4.30;99.90
25951;DHT22;13748;52.240;6.002;2023-03-16T00:37:30;4.30;99.90
25951;DHT22;13748;52.240;6.002;2023-03-16T00:39:59;4.40;99.90
25951;DHT22;13748;52.240;6.002;2023-03-16T00:42:28;4.40;99.90
25951;DHT22;13748;52.240;6.002;2023-03-16T00:44:57;4.40;99.90
25951;DHT22;13748;52.240;6.002;2023-03-16T00:47:26;4.40;99.90
25951;DHT22;13748;52.240;6.002;2023-03-16T00:49:56;4.50;99.90
25951;DHT22;13748;52.240;6.002;2023-03-16T00:52:28;4.50;99.90
25951;DHT22;13748;52.240;6.002;2023-03-16T00:54:56;4.50;99.90
25951;DHT22;13748;52.240;6.002;2023-03-16T00:57:24;4.50;99.90
25951;DHT22;13748;52.240;6.002;2023-03-16T00:59:52;4.50;99.90
25951;DHT22;13748;52.240;6.002;2023-03-16T01:02:20;4.50;99.90
25951;DHT22;13748;52.240;6.002;2023-03-16T01:04:54;4.50;99.90
25951;DHT22;13748;52.240;6.002;2023-03-16T01:07:22;4.50;99.90
25951;DHT22;13748;52.240;6.002;2023-03-16T01:09:49;4.50;99.90
25951;DHT22;13748;52.240;6.002;2023-03-16T01:12:18;4.50;99.90
25951;DHT22;13748;52.240;6.002;2023-03-16T01:14:48;4.50;99.90
25951;DHT22;13748;52.240;6.002;2023-03-16T01:17:16;4.60;99.90
25951;DHT22;13748;52.240;6.002;2023-03-16T01:19:44;4.50;99.90
25951;DHT22;13748;52.240;6.002;2023-03-16T01:22:11;4.50;99.90
25951;DHT22;13748;52.240;6.002;2023-03-16T01:24:39;4.50;99.90
25951;DHT22;13748;52.240;6.002;2023-03-16T01:27:11;4.50;99.90
25951;DHT22;13748;52.240;6.002;2023-03-16T01:29:39;4.50;99.90
25951;DHT22;13748;52.240;6.002;2023-03-16T01:32:09;4.50;99.90
25951;DHT22;13748;52.240;6.002;2023-03-16T01:34:39;4.50;99.90
25951;DHT22;13748;52.240;6.002;2023-03-16T01:37:08;4.50;99.90
25951;DHT22;13748;52.240;6.002;2023-03-16T01:39:35;4.60;99.90
25951;DHT22;13748;52.240;6.002;2023-03-16T01:42:02;4.60;99.90
25951;DHT22;13748;52.240;6.002;2023-03-16T01:44:58;4.60;99.90
25951;DHT22;13748;52.240;6.002;2023-03-16T01:47:34;4.60;99.90
25951;DHT22;13748;52.240;6.002;2023-03-16T01:50:06;4.60;99.90
25951;DHT22;13748;52.240;6.002;2023-03-16T01:52:35;4.50;99.90
25951;DHT22;13748;52.240;6.002;2023-03-16T01:55:05;4.50;99.90
25951;DHT22;13748;52.240;6.002;2023-03-16T01:57:44;4.50;99.90
25951;DHT22;13748;52.240;6.002;2023-03-16T02:00:14;4.50;99.90
25951;DHT22;13748;52.240;6.002;2023-03-16T02:02:50;4.50;99.90
25951;DHT22;13748;52.240;6.002;2023-03-16T02:05:26;4.50;99.90
25951;DHT22;13748;52.240;6.002;2023-03-16T02:08:02;4.50;99.90
25951;DHT22;13748;52.240;6.002;2023-03-16T02:10:33;4.50;99.90
25951;DHT22;13748;52.240;6.002;2023-03-16T02:13:05;4.40;99.90
25951;DHT22;13748;52.240;6.002;2023-03-16T02:15:38;4.50;99.90
25951;DHT22;13748;52.240;6.002;2023-03-16T02:18:07;4.50;99.90
25951;DHT22;13748;52.240;6.002;2023-03-16T02:23:42;4.40;99.90
25951;DHT22;13748;52.240;6.002;2023-03-16T02:32:12;4.50;99.90
25951;DHT22;13748;52.240;6.002;2023-03-16T02:34:40;4.40;99.90
25951;DHT22;13748;52.240;6.002;2023-03-16T02:37:09;4.50;99.90
25951;DHT22;13748;52.240;6.002;2023-03-16T02:39:37;4.60;99.90
25951;DHT22;13748;52.240;6.002;2023-03-16T02:42:04;4.60;99.90
25951;DHT22;13748;52.240;6.002;2023-03-16T02:44:36;4.60;99.90
25951;DHT22;13748;52.240;6.002;2023-03-16T02:47:14;4.60;99.90
25951;DHT22;13748;52.240;6.002;2023-03-16T02:49:44;4.70;99.90
25951;DHT22;13748;52.240;6.002;2023-03-16T02:52:11;4.70;99.90
25951;DHT22;13748;52.240;6.002;2023-03-16T02:54:38;4.70;99.90
25951;DHT22;13748;52.240;6.002;2023-03-16T02:57:12;4.70;99.90
25951;DHT22;13748;52.240;6.002;2023-03-16T02:59:40;4.70;99.90
25951;DHT22;13748;52.240;6.002;2023-03-16T03:02:07;4.70;99.90
25951;DHT22;13748;52.240;6.002;2023-03-16T03:04:38;4.70;99.90
25951;DHT22;13748;52.240;6.002;2023-03-16T03:07:06;4.80;99.90
25951;DHT22;13748;52.240;6.002;2023-03-16T03:09:34;4.80;99.90
25951;DHT22;13748;52.240;6.002;2023-03-16T03:12:01;4.80;99.90
25951;DHT22;13748;52.240;6.002;2023-03-16T03:14:28;4.80;99.90
25951;DHT22;13748;52.240;6.002;2023-03-16T03:16:55;4.80;99.90
25951;DHT22;13748;52.240;6.002;2023-03-16T03:19:29;4.80;99.90
25951;DHT22;13748;52.240;6.002;2023-03-16T03:21:56;4.80;99.90
25951;DHT22;13748;52.240;6.002;2023-03-16T03:24:25;4.80;99.90
25951;DHT22;13748;52.240;6.002;2023-03-16T03:26:56;4.80;99.90
25951;DHT22;13748;52.240;6.002;2023-03-16T03:29:23;4.80;99.90
25951;DHT22;13748;52.240;6.002;2023-03-16T03:31:50;4.80;99.90
25951;DHT22;13748;52.240;6.002;2023-03-16T03:34:18;4.80;99.90
25951;DHT22;13748;52.240;6.002;2023-03-16T03:36:48;4.80;99.90
25951;DHT22;13748;52.240;6.002;2023-03-16T03:39:18;4.90;99.90
25951;DHT22;13748;52.240;6.002;2023-03-16T03:41:45;4.80;99.90
25951;DHT22;13748;52.240;6.002;2023-03-16T03:44:12;4.90;99.90
25951;DHT22;13748;52.240;6.002;2023-03-16T03:46:42;4.90;99.90
25951;DHT22;13748;52.240;6.002;2023-03-16T03:49:11;4.90;99.90
25951;DHT22;13748;52.240;6.002;2023-03-16T03:51:38;4.90;99.90
25951;DHT22;13748;52.240;6.002;2023-03-16T03:54:08;4.90;99.90
25951;DHT22;13748;52.240;6.002;2023-03-16T03:56:39;4.90;99.90
25951;DHT22;13748;52.240;6.002;2023-03-16T03:59:07;4.80;99.90
25951;DHT22;13748;52.240;6.002;2023-03-16T04:01:34;4.90;99.90
25951;DHT22;13748;52.240;6.002;2023-03-16T04:04:02;4.90;99.90
25951;DHT22;13748;52.240;6.002;2023-03-16T04:06:29;4.90;99.90
25951;DHT22;13748;52.240;6.002;2023-03-16T04:08:58;5.10;99.90
25951;DHT22;13748;52.240;6.002;2023-03-16T04:11:25;4.90;99.90
25951;DHT22;13748;52.240;6.002;2023-03-16T04:13:55;4.90;99.90
25951;DHT22;13748;52.240;6.002;2023-03-16T04:16:25;4.90;99.90
25951;DHT22;13748;52.240;6.002;2023-03-16T04:18:53;4.90;99.90
25951;DHT22;13748;52.240;6.002;2023-03-16T04:21:21;4.90;99.90
25951;DHT22;13748;52.240;6.002;2023-03-16T04:23:49;4.90;99.90
25951;DHT22;13748;52.240;6.002;2023-03-16T04:26:20;5.00;99.90
25951;DHT22;13748;52.240;6.002;2023-03-16T04:28:48;4.90;99.90
25951;DHT22;13748;52.240;6.002;2023-03-16T04:31:17;5.00;99.90
25951;DHT22;13748;52.240;6.002;2023-03-16T04:33:44;4.90;99.90
25951;DHT22;13748;52.240;6.002;2023-03-16T04:36:15;4.90;99.90
25951;DHT22;13748;52.240;6.002;2023-03-16T04:38:42;4.90;99.90
25951;DHT22;13748;52.240;6.002;2023-03-16T04:41:10;4.80;99.90
25951;DHT22;13748;52.240;6.002;2023-03-16T04:43:37;4.90;99.90
25951;DHT22;13748;52.240;6.002;2023-03-16T04:46:05;4.80;99.90
25951;DHT22;13748;52.240;6.002;2023-03-16T04:48:33;4.80;99.90
25951;DHT22;13748;52.240;6.002;2023-03-16T04:51:04;4.80;99.90
25951;DHT22;13748;52.240;6.002;2023-03-16T04:53:32;4.80;99.90
25951;DHT22;13748;52.240;6.002;2023-03-16T04:56:01;4.80;99.90
25951;DHT22;13748;52.240;6.002;2023-03-16T04:58:28;4.80;99.90
25951;DHT22;13748;52.240;6.002;2023-03-16T05:00:57;4.80;99.90
25951;DHT22;13748;52.240;6.002;2023-03-16T05:03:26;4.80;99.90
25951;DHT22;13748;52.240;6.002;2023-03-16T05:05:56;4.80;99.90
25951;DHT22;13748;52.240;6.002;2023-03-16T05:08:26;4.80;99.90
25951;DHT22;13748;52.240;6.002;2023-03-16T05:10:57;4.80;99.90
25951;DHT22;13748;52.240;6.002;2023-03-16T05:13:27;4.80;99.90
25951;DHT22;13748;52.240;6.002;2023-03-16T05:15:54;4.70;99.90
25951;DHT22;13748;52.240;6.002;2023-03-16T05:18:26;4.70;99.90
25951;DHT22;13748;52.240;6.002;2023-03-16T05:20:54;4.70;99.90
25951;DHT22;13748;52.240;6.002;2023-03-16T05:23:25;4.70;99.90
25951;DHT22;13748;52.240;6.002;2023-03-16T05:25:52;4.60;99.90
25951;DHT22;13748;52.240;6.002;2023-03-16T05:28:21;4.60;99.90
25951;DHT22;13748;52.240;6.002;2023-03-16T05:30:49;4.70;99.90
25951;DHT22;13748;52.240;6.002;2023-03-16T05:33:17;4.60;99.90
25951;DHT22;13748;52.240;6.002;2023-03-16T05:35:44;4.60;99.90
25951;DHT22;13748;52.240;6.002;2023-03-16T05:38:12;4.50;99.90
25951;DHT22;13748;52.240;6.002;2023-03-16T05:40:39;4.60;99.90
25951;DHT22;13748;52.240;6.002;2023-03-16T05:43:07;4.60;99.90
25951;DHT22;13748;52.240;6.002;2023-03-16T05:45:40;4.60;99.90
25951;DHT22;13748;52.240;6.002;2023-03-16T05:48:07;4.60;99.90
25951;DHT22;13748;52.240;6.002;2023-03-16T05:50:34;4.70;99.90
25951;DHT22;13748;52.240;6.002;2023-03-16T05:53:01;4.60;99.90
25951;DHT22;13748;52.240;6.002;2023-03-16T05:55:34;4.70;99.90
25951;DHT22;13748;52.240;6.002;2023-03-16T05:58:01;4.70;99.90
25951;DHT22;13748;52.240;6.002;2023-03-16T06:00:34;4.70;99.90
25951;DHT22;13748;52.240;6.002;2023-03-16T06:03:02;4.80;99.90
25951;DHT22;13748;52.240;6.002;2023-03-16T06:05:29;4.80;99.90
25951;DHT22;13748;52.240;6.002;2023-03-16T06:08:02;4.80;99.90
25951;DHT22;13748;52.240;6.002;2023-03-16T06:10:30;4.90;99.90
25951;DHT22;13748;52.240;6.002;2023-03-16T06:13:07;4.90;99.90
25951;DHT22;13748;52.240;6.002;2023-03-16T06:16:03;4.90;99.90
25951;DHT22;13748;52.240;6.002;2023-03-16T06:18:46;4.90;99.90
25951;DHT22;13748;52.240;6.002;2023-03-16T06:21:13;5.00;99.90
25951;DHT22;13748;52.240;6.002;2023-03-16T06:23:44;5.00;99.90
25951;DHT22;13748;52.240;6.002;2023-03-16T06:26:13;5.10;99.90
25951;DHT22;13748;52.240;6.002;2023-03-16T06:28:41;5.10;99.90
25951;DHT22;13748;52.240;6.002;2023-03-16T06:31:18;5.10;99.90
25951;DHT22;13748;52.240;6.002;2023-03-16T06:33:45;5.20;99.90
25951;DHT22;13748;52.240;6.002;2023-03-16T06:36:14;5.20;99.90
25951;DHT22;13748;52.240;6.002;2023-03-16T06:39:21;5.70;99.90
25951;DHT22;13748;52.240;6.002;2023-03-16T06:41:50;5.70;99.90
25951;DHT22;13748;52.240;6.002;2023-03-16T06:44:17;5.90;99.90
25951;DHT22;13748;52.240;6.002;2023-03-16T06:46:45;6.10;99.90
25951;DHT22;13748;52.240;6.002;2023-03-16T06:49:16;4.90;99.90
25951;DHT22;13748;52.240;6.002;2023-03-16T06:51:50;6.50;99.90
25951;DHT22;13748;52.240;6.002;2023-03-16T06:54:17;5.30;99.90
25951;DHT22;13748;52.240;6.002;2023-03-16T06:56:52;5.90;99.90
25951;DHT22;13748;52.240;6.002;2023-03-16T06:59:19;5.40;99.90
25951;DHT22;13748;52.240;6.002;2023-03-16T07:01:47;6.00;99.90
25951;DHT22;13748;52.240;6.002;2023-03-16T07:04:20;6.30;99.90
25951;DHT22;13748;52.240;6.002;2023-03-16T07:06:47;5.30;99.90
25951;DHT22;13748;52.240;6.002;2023-03-16T07:09:14;6.00;99.90
25951;DHT22;13748;52.240;6.002;2023-03-16T07:11:41;5.40;99.90
25951;DHT22;13748;52.240;6.002;2023-03-16T07:14:08;5.40;99.90
25951;DHT22;13748;52.240;6.002;2023-03-16T07:16:35;5.50;99.90
25951;DHT22;13748;52.240;6.002;2023-03-16T07:19:03;5.60;99.90
25951;DHT22;13748;52.240;6.002;2023-03-16T07:21:30;5.70;99.90
25951;DHT22;13748;52.240;6.002;2023-03-16T07:24:05;5.60;99.90
25951;DHT22;13748;52.240;6.002;2023-03-16T07:26:32;5.70;99.90
25951;DHT22;13748;52.240;6.002;2023-03-16T07:29:00;5.70;99.90
25951;DHT22;13748;52.240;6.002;2023-03-16T07:31:27;5.70;99.90
25951;DHT22;13748;52.240;6.002;2023-03-16T07:33:54;5.80;99.90
25951;DHT22;13748;52.240;6.002;2023-03-16T07:36:20;5.80;99.90
25951;DHT22;13748;52.240;6.002;2023-03-16T07:38:48;5.80;99.90
25951;DHT22;13748;52.240;6.002;2023-03-16T07:41:14;5.90;99.90
25951;DHT22;13748;52.240;6.002;2023-03-16T07:43:43;6.00;99.90
25951;DHT22;13748;52.240;6.002;2023-03-16T07:46:10;6.00;99.90
25951;DHT22;13748;52.240;6.002;2023-03-16T07:48:41;6.10;99.90
25951;DHT22;13748;52.240;6.002;2023-03-16T07:51:10;6.20;99.90
25951;DHT22;13748;52.240;6.002;2023-03-16T07:53:45;6.20;99.90
25951;DHT22;13748;52.240;6.002;2023-03-16T07:56:15;6.30;99.90
25951;DHT22;13748;52.240;6.002;2023-03-16T07:58:47;6.20;99.90
25951;DHT22;13748;52.240;6.002;2023-03-16T08:01:16;6.20;99.90
25951;DHT22;13748;52.240;6.002;2023-03-16T08:03:46;6.30;99.90
25951;DHT22;13748;52.240;6.002;2023-03-16T08:06:18;6.30;99.90
25951;DHT22;13748;52.240;6.002;2023-03-16T08:08:46;6.30;99.90
25951;DHT22;13748;52.240;6.002;2023-03-16T08:11:13;6.20;99.90
25951;DHT22;13748;52.240;6.002;2023-03-16T08:13:40;6.20;99.90
25951;DHT22;13748;52.240;6.002;2023-03-16T08:16:10;6.20;99.90
25951;DHT22;13748;52.240;6.002;2023-03-16T08:18:39;6.10;99.90
25951;DHT22;13748;52.240;6.002;2023-03-16T08:21:07;6.10;99.90
25951;DHT22;13748;52.240;6.002;2023-03-16T08:23:35;6.20;99.90
25951;DHT22;13748;52.240;6.002;2023-03-16T08:26:02;6.10;99.90
25951;DHT22;13748;52.240;6.002;2023-03-16T08:28:35;6.20;99.90
25951;DHT22;13748;52.240;6.002;2023-03-16T08:31:06;6.10;99.90
25951;DHT22;13748;52.240;6.002;2023-03-16T08:33:34;6.20;99.90
25951;DHT22;13748;52.240;6.002;2023-03-16T08:36:05;6.20;99.90
25951;DHT22;13748;52.240;6.002;2023-03-16T08:38:32;6.20;99.90
25951;DHT22;13748;52.240;6.002;2023-03-16T08:41:03;6.20;99.90
25951;DHT22;13748;52.240;6.002;2023-03-16T08:43:31;6.20;99.90
25951;DHT22;13748;52.240;6.002;2023-03-16T08:45:59;6.20;99.90
25951;DHT22;13748;52.240;6.002;2023-03-16T08:48:28;6.20;99.90
25951;DHT22;13748;52.240;6.002;2023-03-16T08:50:55;6.20;99.90
25951;DHT22;13748;52.240;6.002;2023-03-16T08:53:22;6.20;99.90
25951;DHT22;13748;52.240;6.002;2023-03-16T08:55:49;6.30;99.90
25951;DHT22;13748;52.240;6.002;2023-03-16T08:58:17;6.40;99.90
25951;DHT22;13748;52.240;6.002;2023-03-16T09:00:45;6.40;99.90
25951;DHT22;13748;52.240;6.002;2023-03-16T09:03:15;6.60;99.90
25951;DHT22;13748;52.240;6.002;2023-03-16T09:05:42;6.70;99.90
25951;DHT22;13748;52.240;6.002;2023-03-16T09:08:09;6.80;99.90
25951;DHT22;13748;52.240;6.002;2023-03-16T09:10:36;7.00;99.90
25951;DHT22;13748;52.240;6.002;2023-03-16T09:13:04;7.10;99.90
25951;DHT22;13748;52.240;6.002;2023-03-16T09:15:31;7.00;99.90
25951;DHT22;13748;52.240;6.002;2023-03-16T09:17:58;7.00;99.90
25951;DHT22;13748;52.240;6.002;2023-03-16T09:20:26;7.00;99.90
25951;DHT22;13748;52.240;6.002;2023-03-16T09:22:56;7.00;99.90
25951;DHT22;13748;52.240;6.002;2023-03-16T09:25:23;7.00;99.90
25951;DHT22;13748;52.240;6.002;2023-03-16T09:27:52;7.10;99.90
25951;DHT22;13748;52.240;6.002;2023-03-16T09:30:19;7.10;99.90
25951;DHT22;13748;52.240;6.002;2023-03-16T09:32:47;7.20;99.90
25951;DHT22;13748;52.240;6.002;2023-03-16T09:35:15;7.30;99.90
25951;DHT22;13748;52.240;6.002;2023-03-16T09:37:42;7.40;99.90
25951;DHT22;13748;52.240;6.002;2023-03-16T09:40:25;7.40;99.90
25951;DHT22;13748;52.240;6.002;2023-03-16T09:43:23;7.50;99.90
25951;DHT22;13748;52.240;6.002;2023-03-16T09:48:37;7.50;99.90
25951;DHT22;13748;52.240;6.002;2023-03-16T09:51:14;7.50;99.90
25951;DHT22;13748;52.240;6.002;2023-03-16T09:53:45;7.60;99.90
25951;DHT22;13748;52.240;6.002;2023-03-16T09:56:26;7.60;99.90
25951;DHT22;13748;52.240;6.002;2023-03-16T09:58:57;7.70;99.90
25951;DHT22;13748;52.240;6.002;2023-03-16T10:01:51;7.70;99.90
25951;DHT22;13748;52.240;6.002;2023-03-16T10:04:38;7.80;99.90
25951;DHT22;13748;52.240;6.002;2023-03-16T10:12:49;8.20;99.90
25951;DHT22;13748;52.240;6.002;2023-03-16T10:15:22;8.10;99.90
25951;DHT22;13748;52.240;6.002;2023-03-16T10:17:58;8.20;99.90
25951;DHT22;13748;52.240;6.002;2023-03-16T10:20:31;8.20;99.90
25951;DHT22;13748;52.240;6.002;2023-03-16T10:23:13;8.20;99.90
25951;DHT22;13748;52.240;6.002;2023-03-16T10:25:47;8.20;99.90
25951;DHT22;13748;52.240;6.002;2023-03-16T10:28:18;8.30;99.90
25951;DHT22;13748;52.240;6.002;2023-03-16T10:30:52;8.30;99.90
25951;DHT22;13748;52.240;6.002;2023-03-16T10:33:26;8.40;99.90
25951;DHT22;13748;52.240;6.002;2023-03-16T10:38:36;8.50;99.90
25951;DHT22;13748;52.240;6.002;2023-03-16T10:41:20;8.50;99.90
25951;DHT22;13748;52.240;6.002;2023-03-16T10:43:54;8.70;99.90
25951;DHT22;13748;52.240;6.002;2023-03-16T10:46:24;8.60;99.90
25951;DHT22;13748;52.240;6.002;2023-03-16T10:48:56;8.70;99.90
25951;DHT22;13748;52.240;6.002;2023-03-16T10:51:28;8.70;99.90
25951;DHT22;13748;52.240;6.002;2023-03-16T10:54:26;8.80;99.90
25951;DHT22;13748;52.240;6.002;2023-03-16T10:56:54;8.80;99.90
25951;DHT22;13748;52.240;6.002;2023-03-16T10:59:33;9.00;99.90
25951;DHT22;13748;52.240;6.002;2023-03-16T11:02:33;9.20;99.90
25951;DHT22;13748;52.240;6.002;2023-03-16T11:07:49;9.70;99.90
25951;DHT22;13748;52.240;6.002;2023-03-16T11:10:34;9.90;99.90
25951;DHT22;13748;52.240;6.002;2023-03-16T11:13:19;10.10;99.90
25951;DHT22;13748;52.240;6.002;2023-03-16T11:15:56;10.20;99.90
25951;DHT22;13748;52.240;6.002;2023-03-16T11:18:37;10.30;99.90
25951;DHT22;13748;52.240;6.002;2023-03-16T11:21:36;10.40;99.90
25951;DHT22;13748;52.240;6.002;2023-03-16T11:24:09;10.60;99.90
25951;DHT22;13748;52.240;6.002;2023-03-16T11:26:43;10.70;99.90
25951;DHT22;13748;52.240;6.002;2023-03-16T11:29:17;10.80;99.90
25951;DHT22;13748;52.240;6.002;2023-03-16T11:31:52;11.00;99.90
25951;DHT22;13748;52.240;6.002;2023-03-16T11:34:29;11.10;99.90
25951;DHT22;13748;52.240;6.002;2023-03-16T11:37:29;11.30;99.90
25951;DHT22;13748;52.240;6.002;2023-03-16T11:40:37;11.40;99.90
25951;DHT22;13748;52.240;6.002;2023-03-16T11:49:48;11.60;99.90
25951;DHT22;13748;52.240;6.002;2023-03-16T11:52:42;11.50;99.90
25951;DHT22;13748;52.240;6.002;2023-03-16T11:55:28;11.50;99.90
25951;DHT22;13748;52.240;6.002;2023-03-16T12:12:48;11.30;99.90
25951;DHT22;13748;52.240;6.002;2023-03-16T12:15:28;11.30;99.90
25951;DHT22;13748;52.240;6.002;2023-03-16T12:18:20;11.30;99.90
25951;DHT22;13748;52.240;6.002;2023-03-16T12:21:06;11.50;99.90
25951;DHT22;13748;52.240;6.002;2023-03-16T12:23:53;11.40;99.90
25951;DHT22;13748;52.240;6.002;2023-03-16T12:26:41;11.50;99.90
25951;DHT22;13748;52.240;6.002;2023-03-16T12:29:28;11.50;99.90
25951;DHT22;13748;52.240;6.002;2023-03-16T12:35:20;11.60;99.90
25951;DHT22;13748;52.240;6.002;2023-03-16T12:38:15;11.60;99.90
25951;DHT22;13748;52.240;6.002;2023-03-16T12:43:58;11.90;99.90
25951;DHT22;13748;52.240;6.002;2023-03-16T12:49:08;12.20;99.90
25951;DHT22;13748;52.240;6.002;2023-03-16T12:51:37;12.20;99.90
25951;DHT22;13748;52.240;6.002;2023-03-16T12:54:16;12.40;99.90
25951;DHT22;13748;52.240;6.002;2023-03-16T12:56:45;12.50;99.90
25951;DHT22;13748;52.240;6.002;2023-03-16T12:59:18;12.60;99.90
25951;DHT22;13748;52.240;6.002;2023-03-16T13:01:56;12.70;99.90
25951;DHT22;13748;52.240;6.002;2023-03-16T13:04:38;12.90;99.90
25951;DHT22;13748;52.240;6.002;2023-03-16T13:07:14;13.00;99.90
25951;DHT22;13748;52.240;6.002;2023-03-16T13:10:01;13.30;99.90
25951;DHT22;13748;52.240;6.002;2023-03-16T13:12:32;13.30;99.90
25951;DHT22;13748;52.240;6.002;2023-03-16T13:18:04;13.50;99.90
25951;DHT22;13748;52.240;6.002;2023-03-16T13:20:34;13.60;99.90
25951;DHT22;13748;52.240;6.002;2023-03-16T13:23:16;13.60;99.90
25951;DHT22;13748;52.240;6.002;2023-03-16T13:26:03;13.60;99.90
25951;DHT22;13748;52.240;6.002;2023-03-16T13:28:35;13.70;99.90
25951;DHT22;13748;52.240;6.002;2023-03-16T13:31:18;13.70;99.90
25951;DHT22;13748;52.240;6.002;2023-03-16T13:33:55;13.60;99.90
25951;DHT22;13748;52.240;6.002;2023-03-16T13:36:57;13.60;99.90
25951;DHT22;13748;52.240;6.002;2023-03-16T13:39:53;13.50;99.90
25951;DHT22;13748;52.240;6.002;2023-03-16T13:42:34;13.70;99.90
25951;DHT22;13748;52.240;6.002;2023-03-16T13:45:18;13.60;99.90
25951;DHT22;13748;52.240;6.002;2023-03-16T13:47:52;13.60;99.90
25951;DHT22;13748;52.240;6.002;2023-03-16T13:50:25;13.60;99.90
25951;DHT22;13748;52.240;6.002;2023-03-16T13:53:00;13.70;99.90
25951;DHT22;13748;52.240;6.002;2023-03-16T13:55:34;13.60;99.90
25951;DHT22;13748;52.240;6.002;2023-03-16T13:58:22;13.70;99.90
25951;DHT22;13748;52.240;6.002;2023-03-16T14:01:13;13.60;99.90
25951;DHT22;13748;52.240;6.002;2023-03-16T14:03:43;13.50;99.90
25951;DHT22;13748;52.240;6.002;2023-03-16T14:06:26;13.60;99.90
25951;DHT22;13748;52.240;6.002;2023-03-16T14:09:00;13.60;99.90
25951;DHT22;13748;52.240;6.002;2023-03-16T14:11:28;13.60;99.90
25951;DHT22;13748;52.240;6.002;2023-03-16T14:13:57;13.70;99.90
25951;DHT22;13748;52.240;6.002;2023-03-16T14:16:28;13.90;99.90
25951;DHT22;13748;52.240;6.002;2023-03-16T14:19:07;13.80;99.90
25951;DHT22;13748;52.240;6.002;2023-03-16T14:21:44;13.70;99.90
25951;DHT22;13748;52.240;6.002;2023-03-16T14:24:41;13.70;99.90
25951;DHT22;13748;52.240;6.002;2023-03-16T14:27:15;13.70;99.90
25951;DHT22;13748;52.240;6.002;2023-03-16T14:29:44;13.60;99.90
25951;DHT22;13748;52.240;6.002;2023-03-16T14:32:27;13.60;99.90
25951;DHT22;13748;52.240;6.002;2023-03-16T14:35:15;13.60;99.90
25951;DHT22;13748;52.240;6.002;2023-03-16T14:37:44;13.70;99.90
25951;DHT22;13748;52.240;6.002;2023-03-16T14:40:29;13.80;99.90
25951;DHT22;13748;52.240;6.002;2023-03-16T14:43:03;13.80;99.90
25951;DHT22;13748;52.240;6.002;2023-03-16T14:45:34;13.90;99.90
25951;DHT22;13748;52.240;6.002;2023-03-16T14:48:13;13.90;99.90
25951;DHT22;13748;52.240;6.002;2023-03-16T14:50:50;13.90;99.90
25951;DHT22;13748;52.240;6.002;2023-03-16T14:53:22;13.80;99.90
25951;DHT22;13748;52.240;6.002;2023-03-16T14:55:50;13.90;99.90
25951;DHT22;13748;52.240;6.002;2023-03-16T14:58:17;13.80;99.90
25951;DHT22;13748;52.240;6.002;2023-03-16T15:00:47;13.80;99.90
25951;DHT22;13748;52.240;6.002;2023-03-16T15:03:22;13.90;99.90
25951;DHT22;13748;52.240;6.002;2023-03-16T15:05:54;13.80;99.90
25951;DHT22;13748;52.240;6.002;2023-03-16T15:08:40;13.90;99.90
25951;DHT22;13748;52.240;6.002;2023-03-16T15:11:18;13.80;99.90
25951;DHT22;13748;52.240;6.002;2023-03-16T15:13:51;13.80;99.90
25951;DHT22;13748;52.240;6.002;2023-03-16T15:16:25;13.70;99.90
25951;DHT22;13748;52.240;6.002;2023-03-16T15:19:09;13.70;99.90
25951;DHT22;13748;52.240;6.002;2023-03-16T15:21:37;13.70;99.90
25951;DHT22;13748;52.240;6.002;2023-03-16T15:24:07;13.80;99.90
25951;DHT22;13748;52.240;6.002;2023-03-16T15:26:37;13.80;99.90
25951;DHT22;13748;52.240;6.002;2023-03-16T15:29:05;13.70;99.90
25951;DHT22;13748;52.240;6.002;2023-03-16T15:31:37;13.70;99.90
25951;DHT22;13748;52.240;6.002;2023-03-16T15:34:06;13.70;99.90
25951;DHT22;13748;52.240;6.002;2023-03-16T15:36:33;13.50;99.90
25951;DHT22;13748;52.240;6.002;2023-03-16T15:39:00;13.50;99.90
25951;DHT22;13748;52.240;6.002;2023-03-16T15:41:28;13.50;99.90
25951;DHT22;13748;52.240;6.002;2023-03-16T15:44:11;13.50;99.90
25951;DHT22;13748;52.240;6.002;2023-03-16T15:46:38;13.50;99.90
25951;DHT22;13748;52.240;6.002;2023-03-16T15:49:05;13.50;99.90
25951;DHT22;13748;52.240;6.002;2023-03-16T15:51:32;13.50;99.90
25951;DHT22;13748;52.240;6.002;2023-03-16T15:54:02;13.40;99.90
25951;DHT22;13748;52.240;6.002;2023-03-16T15:56:32;13.40;99.90
25951;DHT22;13748;52.240;6.002;2023-03-16T15:59:18;13.50;99.90
25951;DHT22;13748;52.240;6.002;2023-03-16T16:01:50;13.50;99.90
25951;DHT22;13748;52.240;6.002;2023-03-16T16:04:22;13.50;99.90
25951;DHT22;13748;52.240;6.002;2023-03-16T16:06:51;13.50;99.90
25951;DHT22;13748;52.240;6.002;2023-03-16T16:09:21;13.50;99.90
25951;DHT22;13748;52.240;6.002;2023-03-16T16:11:48;13.40;99.90
25951;DHT22;13748;52.240;6.002;2023-03-16T16:14:21;13.40;99.90
25951;DHT22;13748;52.240;6.002;2023-03-16T16:16:49;13.30;99.90
25951;DHT22;13748;52.240;6.002;2023-03-16T16:19:18;13.40;99.90
25951;DHT22;13748;52.240;6.002;2023-03-16T16:21:45;13.30;99.90
25951;DHT22;13748;52.240;6.002;2023-03-16T16:24:13;13.30;99.90
25951;DHT22;13748;52.240;6.002;2023-03-16T16:26:43;13.20;99.90
25951;DHT22;13748;52.240;6.002;2023-03-16T16:29:30;13.10;99.90
25951;DHT22;13748;52.240;6.002;2023-03-16T16:31:59;13.20;99.90
25951;DHT22;13748;52.240;6.002;2023-03-16T16:34:27;13.10;99.90
25951;DHT22;13748;52.240;6.002;2023-03-16T16:36:55;13.20;99.90
25951;DHT22;13748;52.240;6.002;2023-03-16T16:39:24;13.20;99.90
25951;DHT22;13748;52.240;6.002;2023-03-16T16:41:57;13.20;99.90
25951;DHT22;13748;52.240;6.002;2023-03-16T16:44:29;13.30;99.90
25951;DHT22;13748;52.240;6.002;2023-03-16T16:47:00;13.20;99.90
25951;DHT22;13748;52.240;6.002;2023-03-16T16:49:29;13.20;99.90
25951;DHT22;13748;52.240;6.002;2023-03-16T16:51:57;13.20;99.90
25951;DHT22;13748;52.240;6.002;2023-03-16T16:54:27;13.20;99.90
25951;DHT22;13748;52.240;6.002;2023-03-16T16:56:55;13.20;99.90
25951;DHT22;13748;52.240;6.002;2023-03-16T16:59:35;13.10;99.90
25951;DHT22;13748;52.240;6.002;2023-03-16T17:04:45;13.00;99.90
25951;DHT22;13748;52.240;6.002;2023-03-16T17:07:13;13.00;99.90
25951;DHT22;13748;52.240;6.002;2023-03-16T17:09:41;12.90;99.90
25951;DHT22;13748;52.240;6.002;2023-03-16T17:12:31;13.00;99.90